Time;durP1;ratioP1;P1;durP2;ratioP2;P2;SDS_P1;SDS_P2;PMS_P1;PMS_P2;Temp;Humidity;BMP_temperature;BMP_pressure;BME280_temperature;BME280_humidity;BME280_pressure;Samples;Min_cycle;Max_cycle;Signal;HPM_P1;HPM_P2
2022/09/28 00:01:38;;;;;;;10.70;4.80;;;;;;;11.46;73.30;97327.87;105916;1276;95274;-64
2022/09/28 00:04:12;;;;;;;11.40;4.80;;;;;;;11.46;73.47;97323.77;105912;1276;111709;-64
2022/09/28 00:06:41;;;;;;;12.20;4.70;;;;;;;11.47;73.28;97319.15;105908;1276;96416;-64
2022/09/28 00:09:17;;;;;;;10.70;4.50;;;;;;;11.47;73.44;97317.76;105883;1276;108371;-64
2022/09/28 00:11:46;;;;;;;11.70;4.90;;;;;;;11.45;73.43;97317.58;105893;1276;98040;-62
2022/09/28 00:14:14;;;;;;;15.00;5.10;;;;;;;11.45;73.33;97318.31;105935;1276;95372;-65
2022/09/28 00:16:47;;;;;;;12.80;5.10;;;;;;;11.44;73.42;97320.27;105972;1276;111958;-64
2022/09/28 00:19:19;;;;;;;12.20;4.80;;;;;;;11.44;73.57;97323.73;105946;1276;97884;-65
2022/09/28 00:21:47;;;;;;;12.70;5.00;;;;;;;11.45;73.48;97318.75;106012;1276;108015;-65
2022/09/28 00:24:16;;;;;;;11.00;4.80;;;;;;;11.41;73.39;97315.36;105964;1276;98000;-65
2022/09/28 00:26:54;;;;;;;12.10;5.40;;;;;;;11.38;73.38;97317.13;105981;1276;98559;-65
2022/09/28 00:29:26;;;;;;;13.00;5.50;;;;;;;11.37;73.46;97309.77;105920;1276;111437;-64
2022/09/28 00:32:01;;;;;;;14.00;5.20;;;;;;;11.36;73.49;97308.89;105895;1276;98037;-64
2022/09/28 00:34:37;;;;;;;14.70;5.80;;;;;;;11.31;73.59;97313.40;105843;1276;107807;-64
2022/09/28 00:37:08;;;;;;;13.40;5.50;;;;;;;11.29;73.52;97318.54;105835;1276;98019;-65
2022/09/28 00:39:40;;;;;;;14.20;5.90;;;;;;;11.28;73.58;97320.67;105938;1276;97863;-66
2022/09/28 00:42:18;;;;;;;13.70;5.90;;;;;;;11.26;73.58;97318.83;105897;1276;111960;-64
2022/09/28 00:44:46;;;;;;;13.50;5.60;;;;;;;11.26;73.65;97320.69;105946;1276;96527;-64
2022/09/28 00:47:25;;;;;;;12.30;5.50;;;;;;;11.24;73.69;97317.14;105832;1276;108401;-65
2022/09/28 00:49:59;;;;;;;14.50;5.50;;;;;;;11.22;73.79;97319.11;105860;1276;97984;-64
2022/09/28 00:52:41;;;;;;;13.90;5.10;;;;;;;11.20;73.63;97313.45;105979;1276;95372;-64
2022/09/28 00:55:19;;;;;;;13.40;5.30;;;;;;;11.21;73.80;97311.61;105935;1276;111521;-64
2022/09/28 00:57:59;;;;;;;12.50;5.30;;;;;;;11.21;73.65;97313.41;105926;1276;96455;-65
2022/09/28 01:00:27;;;;;;;12.30;5.20;;;;;;;11.20;73.74;97315.48;105948;1276;107717;-65
2022/09/28 01:03:00;;;;;;;13.30;5.30;;;;;;;11.18;73.71;97318.64;105922;1276;97879;-65
2022/09/28 01:05:31;;;;;;;12.70;5.30;;;;;;;11.18;73.82;97316.48;105999;1276;97869;-64
2022/09/28 01:08:03;;;;;;;11.80;5.30;;;;;;;11.17;73.88;97311.31;105915;1276;112028;-65
2022/09/28 01:10:33;;;;;;;12.70;5.40;;;;;;;11.13;73.68;97309.55;105897;1276;97970;-65
2022/09/28 01:13:01;;;;;;;12.20;5.30;;;;;;;11.11;73.82;97308.35;105915;1276;108437;-65
2022/09/28 01:15:37;;;;;;;11.90;5.30;;;;;;;11.13;73.93;97309.63;105928;1276;97997;-64
2022/09/28 01:18:20;;;;;;;13.80;5.50;;;;;;;11.13;74.06;97310.83;105919;1276;97895;-65
2022/09/28 01:21:14;;;;;;;11.70;5.20;;;;;;;11.12;73.98;97311.95;105877;1276;112098;-64
2022/09/28 01:24:45;;;;;;;12.10;5.10;;;;;;;11.11;74.11;97315.83;105851;1276;98427;-65
2022/09/28 01:27:25;;;;;;;10.70;4.70;;;;;;;11.12;73.93;97314.94;105886;1276;107723;-65
2022/09/28 01:30:10;;;;;;;12.60;5.10;;;;;;;11.13;74.06;97318.47;105924;1276;97965;-66
2022/09/28 01:32:41;;;;;;;11.20;4.80;;;;;;;11.12;73.98;97311.24;105947;1276;97932;-66
2022/09/28 01:35:39;;;;;;;10.80;5.10;;;;;;;11.11;74.03;97305.52;106004;1276;112160;-66
2022/09/28 01:38:18;;;;;;;11.90;4.90;;;;;;;11.09;74.07;97304.61;105990;1276;96879;-66
2022/09/28 01:40:53;;;;;;;10.80;4.80;;;;;;;11.10;74.13;97306.16;105945;1276;108273;-64
2022/09/28 01:43:36;;;;;;;10.50;4.60;;;;;;;11.12;74.15;97307.02;105983;1276;97874;-65
2022/09/28 01:46:16;;;;;;;12.50;4.80;;;;;;;11.14;74.29;97305.91;106001;1276;97875;-65
2022/09/28 01:48:59;;;;;;;10.90;4.90;;;;;;;11.15;74.23;97305.23;105931;1276;111150;-65
2022/09/28 01:51:39;;;;;;;10.30;4.50;;;;;;;11.15;74.15;97305.11;106006;1276;98001;-63
2022/09/28 01:54:28;;;;;;;12.50;5.10;;;;;;;11.13;74.04;97299.67;105956;1276;107693;-63
2022/09/28 01:57:09;;;;;;;10.00;4.90;;;;;;;11.12;74.17;97300.63;105945;1276;97989;-66
2022/09/28 01:59:45;;;;;;;12.70;5.00;;;;;;;11.12;74.24;97303.98;105965;1276;96430;-64
2022/09/28 02:02:25;;;;;;;10.40;5.10;;;;;;;11.14;74.26;97308.77;105907;1276;109980;-65
2022/09/28 02:05:11;;;;;;;13.00;5.40;;;;;;;11.14;74.12;97309.27;105939;1276;97834;-65
2022/09/28 02:08:02;;;;;;;14.50;5.40;;;;;;;11.15;74.36;97311.96;105925;1276;108082;-65
2022/09/28 02:10:42;;;;;;;13.20;5.20;;;;;;;11.15;74.41;97319.24;105882;1276;95356;-63
2022/09/28 02:13:41;;;;;;;10.50;4.70;;;;;;;11.15;74.29;97323.34;105879;1276;97896;-63
2022/09/28 02:16:20;;;;;;;10.10;4.50;;;;;;;11.14;74.34;97330.15;105879;1276;113337;-65
2022/09/28 02:18:52;;;;;;;11.60;4.50;;;;;;;11.13;74.31;97335.44;105827;1276;96428;-65
2022/09/28 02:21:33;;;;;;;10.90;4.70;;;;;;;11.13;74.39;97334.07;105887;1276;108423;-63
2022/09/28 02:24:18;;;;;;;11.50;4.90;;;;;;;11.11;74.26;97327.33;105870;1276;95328;-64
2022/09/28 02:26:54;;;;;;;12.70;5.10;;;;;;;11.11;74.50;97319.23;105913;1276;95405;-64
2022/09/28 02:29:26;;;;;;;10.10;4.90;;;;;;;11.11;74.38;97313.17;105984;1276;111185;-65
2022/09/28 02:31:56;;;;;;;11.60;4.90;;;;;;;11.11;74.48;97299.27;105927;1276;96416;-64
2022/09/28 02:34:25;;;;;;;11.90;5.20;;;;;;;11.11;74.41;97289.52;105814;1276;108377;-65
2022/09/28 02:36:53;;;;;;;12.40;5.30;;;;;;;11.04;74.05;97294.00;105887;1276;97838;-65
2022/09/28 02:39:25;;;;;;;13.60;5.70;;;;;;;10.96;74.25;97295.89;105918;1276;97888;-65
2022/09/28 02:42:18;;;;;;;12.90;4.90;;;;;;;10.90;74.30;97296.99;105881;1276;112103;-65
2022/09/28 02:45:08;;;;;;;12.20;4.80;;;;;;;10.90;74.34;97304.63;105915;1276;98083;-66
2022/09/28 02:47:58;;;;;;;11.50;5.60;;;;;;;10.92;74.49;97301.22;105873;1276;108471;-65
2022/09/28 02:50:51;;;;;;;13.20;5.50;;;;;;;10.93;74.56;97302.36;105909;1276;97996;-65
2022/09/28 02:53:49;;;;;;;11.60;5.20;;;;;;;10.96;74.59;97312.23;106008;1276;96426;-66
2022/09/28 02:56:32;;;;;;;12.00;5.80;;;;;;;10.97;74.59;97315.13;106015;1276;112037;-65
2022/09/28 02:59:38;;;;;;;12.60;4.90;;;;;;;10.98;74.63;97318.52;106019;1276;97886;-64
2022/09/28 03:02:24;;;;;;;11.10;5.10;;;;;;;10.99;74.59;97322.92;105978;1276;108630;-65
2022/09/28 03:05:07;;;;;;;14.00;5.80;;;;;;;10.99;74.81;97323.55;105924;1276;98482;-65
2022/09/28 03:08:02;;;;;;;12.20;4.80;;;;;;;10.99;74.65;97325.16;106025;1276;97884;-64
2022/09/28 03:10:45;;;;;;;13.60;5.80;;;;;;;10.99;74.78;97328.23;105806;1276;114195;-65
2022/09/28 03:13:17;;;;;;;14.30;5.10;;;;;;;10.99;74.88;97321.13;105839;1278;97217;-66
2022/09/28 03:15:46;;;;;;;11.40;5.40;;;;;;;11.00;74.79;97317.57;105960;1276;109118;-65
2022/09/28 03:18:20;;;;;;;12.20;5.00;;;;;;;11.02;74.83;97321.16;105911;1276;97920;-65
2022/09/28 03:20:48;;;;;;;12.80;5.10;;;;;;;11.03;74.84;97325.69;105948;1276;99285;-65
2022/09/28 03:23:19;;;;;;;12.30;5.00;;;;;;;11.04;74.73;97331.61;105949;1276;113645;-65
2022/09/28 03:25:54;;;;;;;12.50;4.90;;;;;;;11.01;74.85;97342.17;105986;1276;99378;-67
2022/09/28 03:28:24;;;;;;;12.10;5.40;;;;;;;11.01;74.95;97344.99;105940;1276;108429;-66
2022/09/28 03:30:53;;;;;;;12.40;5.10;;;;;;;11.02;74.82;97349.13;105962;1276;99332;-66
2022/09/28 03:33:22;;;;;;;10.50;5.10;;;;;;;11.02;74.79;97352.33;105972;1276;99227;-65
2022/09/28 03:35:51;;;;;;;11.40;5.10;;;;;;;11.02;74.92;97360.64;105981;1276;113237;-65
2022/09/28 03:38:25;;;;;;;13.70;5.90;;;;;;;11.01;74.91;97356.21;106027;1276;96663;-68
2022/09/28 03:41:01;;;;;;;13.00;6.00;;;;;;;10.99;74.83;97358.49;106013;1276;108378;-64
2022/09/28 03:43:30;;;;;;;12.60;5.80;;;;;;;10.98;74.81;97357.76;105975;1276;99163;-66
2022/09/28 03:46:01;;;;;;;10.30;5.10;;;;;;;10.97;74.93;97357.20;105890;1276;99266;-66
2022/09/28 03:48:38;;;;;;;12.90;5.90;;;;;;;10.96;75.01;97359.15;105976;1276;112099;-65
2022/09/28 03:51:09;;;;;;;12.60;5.70;;;;;;;10.96;74.92;97357.02;105947;1276;97701;-66
2022/09/28 03:53:39;;;;;;;11.20;5.30;;;;;;;10.96;74.96;97360.64;105884;1276;154580;-64
2022/09/28 03:56:12;;;;;;;10.70;5.20;;;;;;;10.95;75.03;97358.38;105838;1276;99314;-65
2022/09/28 03:58:45;;;;;;;;;;;;;;;10.97;75.07;97354.66;106001;1276;99144;-69
2022/09/28 04:01:18;;;;;;;12.30;5.20;;;;;;;10.95;75.07;97353.82;106002;1276;111718;-68
2022/09/28 04:03:54;;;;;;;17.20;5.70;;;;;;;10.93;74.88;97355.23;106002;1276;99294;-67
2022/09/28 04:06:28;;;;;;;11.10;4.90;;;;;;;10.91;75.00;97357.44;105962;1276;107829;-65
2022/09/28 04:08:56;;;;;;;;;;;;;;;10.89;75.04;97354.77;105969;1276;97680;-66
2022/09/28 04:11:24;;;;;;;12.90;5.20;;;;;;;10.85;75.09;97356.86;106043;1276;99313;-67
2022/09/28 04:13:52;;;;;;;9.90;5.00;;;;;;;10.83;74.96;97360.11;105844;1276;113389;-65
2022/09/28 04:16:22;;;;;;;10.00;4.70;;;;;;;10.79;74.96;97362.98;105987;1276;96599;-65
2022/09/28 04:19:02;;;;;;;9.60;4.60;;;;;;;10.77;75.05;97361.30;105973;1276;108391;-65
2022/09/28 04:21:30;;;;;;;10.50;4.40;;;;;;;10.75;75.03;97365.20;105968;1276;100021;-65
2022/09/28 04:23:59;;;;;;;10.70;4.70;;;;;;;10.73;74.87;97363.46;105963;1276;99211;-65
2022/09/28 04:26:30;;;;;;;11.40;4.90;;;;;;;10.69;75.05;97363.14;105971;1276;113917;-65
2022/09/28 04:29:17;;;;;;;11.40;5.10;;;;;;;10.67;75.00;97359.20;106052;1276;97513;-65
2022/09/28 04:31:56;;;;;;;11.60;4.60;;;;;;;10.64;74.99;97362.00;106015;1276;107757;-66
2022/09/28 04:34:26;;;;;;;10.60;5.20;;;;;;;10.62;74.96;97362.08;105900;1276;99233;-67
2022/09/28 04:36:58;;;;;;;9.00;4.90;;;;;;;10.59;74.92;97360.23;105880;1276;99313;-67
2022/09/28 04:39:29;;;;;;;11.70;5.30;;;;;;;10.56;75.03;97360.66;105798;1278;113810;-66
2022/09/28 04:41:57;;;;;;;14.80;5.70;;;;;;;10.54;75.01;97359.41;105943;1276;99300;-65
2022/09/28 04:44:24;;;;;;;16.50;5.40;;;;;;;10.54;75.11;97359.13;105902;1276;108802;-65
2022/09/28 04:46:58;;;;;;;12.70;6.00;;;;;;;10.53;75.04;97362.42;105950;1276;99344;-65
2022/09/28 04:49:35;;;;;;;13.00;5.90;;;;;;;10.51;75.11;97357.14;105926;1276;96639;-66
2022/09/28 04:52:09;;;;;;;13.40;5.90;;;;;;;10.50;75.22;97358.43;105954;1276;113258;-64
2022/09/28 04:54:45;;;;;;;15.50;6.50;;;;;;;10.49;75.09;97351.61;105941;1276;98970;-64
2022/09/28 04:57:14;;;;;;;12.80;5.70;;;;;;;10.49;75.06;97354.30;105804;1277;108768;-64
2022/09/28 04:59:46;;;;;;;16.40;6.80;;;;;;;10.49;75.09;97352.91;105892;1276;98876;-63
2022/09/28 05:02:14;;;;;;;17.20;7.10;;;;;;;10.48;75.05;97360.74;105829;1276;97729;-64
2022/09/28 05:04:42;;;;;;;18.00;6.70;;;;;;;10.48;75.14;97362.90;105865;1276;113219;-65
2022/09/28 05:07:11;;;;;;;17.00;6.90;;;;;;;10.49;75.11;97366.91;105947;1276;97646;-64
2022/09/28 05:09:39;;;;;;;13.50;6.10;;;;;;;10.50;75.21;97367.67;105705;1276;107806;-63
2022/09/28 05:12:12;;;;;;;14.50;6.60;;;;;;;10.52;75.25;97369.95;105846;1276;99314;-64
2022/09/28 05:14:40;;;;;;;14.40;6.20;;;;;;;10.54;75.13;97366.77;105891;1276;97764;-66
2022/09/28 05:17:10;;;;;;;14.00;5.90;;;;;;;10.55;75.12;97369.31;105827;1276;113848;-65
2022/09/28 05:19:38;;;;;;;15.00;6.10;;;;;;;10.56;75.32;97371.98;105800;1276;97978;-64
2022/09/28 05:22:13;;;;;;;19.90;7.10;;;;;;;10.57;75.19;97374.92;105752;1276;108380;-65
2022/09/28 05:24:42;;;;;;;16.70;7.00;;;;;;;10.59;75.13;97376.19;105752;1276;99405;-62
2022/09/28 05:27:12;;;;;;;15.80;7.40;;;;;;;10.60;75.17;97373.73;105888;1276;99274;-66
2022/09/28 05:29:40;;;;;;;16.30;7.90;;;;;;;10.61;75.03;97375.86;105820;1278;113493;-66
2022/09/28 05:32:11;;;;;;;17.70;7.80;;;;;;;10.60;75.25;97376.06;106022;1276;98314;-65
2022/09/28 05:34:39;;;;;;;21.00;8.10;;;;;;;10.62;75.21;97384.91;105928;1276;108206;-64
2022/09/28 05:37:11;;;;;;;17.70;8.80;;;;;;;10.65;75.26;97384.27;105970;1276;99342;-65
2022/09/28 05:39:39;;;;;;;19.20;8.50;;;;;;;10.69;75.15;97389.52;106016;1276;99243;-65
2022/09/28 05:42:09;;;;;;;19.30;8.80;;;;;;;10.72;75.29;97386.58;105896;1276;112401;-64
2022/09/28 05:44:37;;;;;;;18.10;8.10;;;;;;;10.74;75.35;97391.23;105964;1276;97450;-66
2022/09/28 05:47:08;;;;;;;18.80;8.00;;;;;;;10.73;75.40;97389.64;106030;1276;108365;-64
2022/09/28 05:49:36;;;;;;;17.50;8.20;;;;;;;10.74;75.43;97392.56;105774;1277;99346;-65
2022/09/28 05:52:03;;;;;;;19.90;8.60;;;;;;;10.77;75.47;97396.24;105985;1276;99310;-61
2022/09/28 05:54:34;;;;;;;18.30;8.30;;;;;;;10.80;75.42;97400.52;105977;1276;113449;-65
2022/09/28 05:57:08;;;;;;;18.10;8.20;;;;;;;10.85;75.43;97400.32;105854;1279;97929;-64
2022/09/28 05:59:40;;;;;;;19.50;9.10;;;;;;;10.89;75.45;97397.80;105930;1276;108404;-64
2022/09/28 06:02:09;;;;;;;20.00;8.80;;;;;;;10.91;75.33;97397.47;105862;1275;100422;-64
2022/09/28 06:04:37;;;;;;;20.30;9.30;;;;;;;10.93;75.34;97398.30;105899;1276;99275;-64
2022/09/28 06:07:06;;;;;;;19.10;8.50;;;;;;;10.98;75.52;97398.93;105776;1278;113638;-65
2022/09/28 06:09:34;;;;;;;19.30;8.90;;;;;;;11.03;75.42;97396.92;105731;1278;99283;-65
2022/09/28 06:12:01;;;;;;;18.70;8.10;;;;;;;11.08;75.50;97398.39;105864;1276;108024;-65
2022/09/28 06:14:30;;;;;;;20.00;9.00;;;;;;;11.13;75.51;97402.14;105863;1276;99280;-63
2022/09/28 06:16:58;;;;;;;20.30;9.00;;;;;;;11.19;75.57;97406.53;105961;1276;99247;-65
2022/09/28 06:19:30;;;;;;;20.40;9.20;;;;;;;11.26;75.33;97409.42;105949;1277;113515;-64
2022/09/28 06:21:58;;;;;;;19.60;9.10;;;;;;;11.30;75.46;97411.73;105859;1277;97717;-63
2022/09/28 06:24:28;;;;;;;19.40;9.20;;;;;;;11.34;75.50;97416.75;106122;1277;108476;-64
2022/09/28 06:26:56;;;;;;;19.50;8.80;;;;;;;11.37;75.63;97421.54;105885;1277;99205;-65
2022/09/28 06:29:28;;;;;;;19.70;9.20;;;;;;;11.40;75.50;97420.25;105980;1277;99207;-66
2022/09/28 06:31:58;;;;;;;22.00;9.70;;;;;;;11.40;75.55;97426.05;105915;1276;113386;-64
2022/09/28 06:34:30;;;;;;;19.90;9.80;;;;;;;11.40;75.57;97426.02;106044;1277;99256;-65
2022/09/28 06:36:58;;;;;;;27.80;11.30;;;;;;;11.41;75.61;97430.01;105820;1277;108630;-63
2022/09/28 06:39:26;;;;;;;23.80;10.40;;;;;;;11.45;75.69;97427.70;105865;1276;99343;-64
2022/09/28 06:41:55;;;;;;;22.10;10.10;;;;;;;11.52;75.41;97427.14;106017;1276;99237;-63
2022/09/28 06:44:24;;;;;;;21.80;10.40;;;;;;;11.56;75.41;97422.14;105830;1277;112748;-65
2022/09/28 06:46:52;;;;;;;22.40;10.60;;;;;;;11.58;75.35;97424.35;105937;1276;99087;-65
2022/09/28 06:49:21;;;;;;;21.30;9.90;;;;;;;11.64;75.25;97417.61;105898;1277;109792;-65
2022/09/28 06:51:49;;;;;;;19.70;8.20;;;;;;;11.68;75.47;97417.70;105873;1277;99301;-66
2022/09/28 06:54:18;;;;;;;21.90;9.70;;;;;;;11.71;75.33;97415.48;105914;1278;99234;-66
2022/09/28 06:56:47;;;;;;;21.20;10.20;;;;;;;11.71;75.41;97413.99;105915;1277;112305;-64
2022/09/28 06:59:14;;;;;;;21.00;8.90;;;;;;;11.75;75.33;97417.27;105864;1277;99253;-63
2022/09/28 07:01:42;;;;;;;22.00;9.40;;;;;;;11.82;75.40;97419.00;105846;1277;108345;-66
2022/09/28 07:04:11;;;;;;;20.00;9.10;;;;;;;11.86;75.42;97423.08;105884;1277;99348;-63
2022/09/28 07:06:46;;;;;;;20.60;9.10;;;;;;;11.86;75.41;97431.10;105972;1278;99424;-64
2022/09/28 07:09:15;;;;;;;19.50;9.10;;;;;;;11.93;75.34;97436.85;105878;1277;113446;-63
2022/09/28 07:12:00;;;;;;;20.30;9.20;;;;;;;11.98;75.31;97436.09;105916;1277;99154;-62
2022/09/28 07:14:33;;;;;;;20.10;9.00;;;;;;;12.04;75.34;97438.12;105948;1277;108053;-65
2022/09/28 07:17:16;;;;;;;21.10;9.40;;;;;;;12.06;75.21;97431.92;105886;1276;99253;-65
2022/09/28 07:19:45;;;;;;;20.10;8.20;;;;;;;12.04;75.35;97432.48;105991;1276;99342;-64
2022/09/28 07:22:13;;;;;;;17.20;7.70;;;;;;;12.05;75.35;97433.06;105892;1278;113327;-65
2022/09/28 07:24:47;;;;;;;19.80;7.80;;;;;;;12.11;75.41;97439.45;105938;1277;99872;-65
2022/09/28 07:27:17;;;;;;;15.00;6.50;;;;;;;12.14;75.54;97441.09;105962;1277;108440;-65
2022/09/28 07:29:45;;;;;;;16.80;6.20;;;;;;;12.17;75.17;97445.36;105961;1278;99282;-64
2022/09/28 07:32:15;;;;;;;14.20;5.80;;;;;;;12.19;75.19;97447.11;105943;1277;99269;-66
2022/09/28 07:34:43;;;;;;;12.40;5.20;;;;;;;12.14;75.24;97447.45;105875;1277;113301;-66
2022/09/28 07:37:12;;;;;;;8.30;4.30;;;;;;;12.14;75.34;97456.14;105997;1278;99352;-66
2022/09/28 07:42:30;;;;;;;12.60;4.20;;;;;;;12.21;75.13;97461.41;105907;1278;99381;-68
2022/09/28 07:44:59;;;;;;;12.60;4.20;;;;;;;12.31;75.16;97459.64;105929;1278;99233;-67
2022/09/28 07:47:27;;;;;;;10.60;4.10;;;;;;;12.42;75.05;97461.07;105909;1276;112829;-64
2022/09/28 07:50:02;;;;;;;9.90;3.60;;;;;;;12.52;74.91;97466.39;105932;1278;99182;-66
2022/09/28 07:52:33;;;;;;;8.20;3.40;;;;;;;12.56;74.98;97471.80;105890;1277;108455;-66
2022/09/28 07:55:04;;;;;;;9.50;3.50;;;;;;;12.53;74.86;97469.49;105940;1277;99349;-65
2022/09/28 07:57:35;;;;;;;6.80;3.10;;;;;;;12.47;74.90;97467.30;105959;1277;99798;-65
2022/09/28 08:00:07;;;;;;;9.90;3.30;;;;;;;12.44;74.97;97473.06;105934;1278;113406;-64
2022/09/28 08:02:36;;;;;;;5.10;3.00;;;;;;;12.35;74.67;97474.91;105922;1278;98485;-66
2022/09/28 08:05:08;;;;;;;7.80;3.30;;;;;;;12.31;74.67;97474.67;105880;1277;108277;-66
2022/09/28 08:07:37;;;;;;;7.60;3.50;;;;;;;12.30;74.74;97471.36;105944;1278;99323;-63
2022/09/28 08:10:06;;;;;;;5.10;2.90;;;;;;;12.32;74.60;97472.00;105956;1277;99272;-64
2022/09/28 08:12:39;;;;;;;5.80;2.80;;;;;;;12.34;74.53;97476.14;105864;1277;113224;-65
2022/09/28 08:15:10;;;;;;;5.60;2.10;;;;;;;12.35;74.59;97473.30;105978;1277;99319;-64
2022/09/28 08:17:37;;;;;;;4.90;2.10;;;;;;;12.38;74.44;97473.05;105933;1277;107844;-64
2022/09/28 08:23:07;;;;;;;5.00;2.30;;;;;;;12.54;74.39;97474.53;105986;1278;99146;-70
2022/09/28 08:25:37;;;;;;;6.60;2.60;;;;;;;12.64;74.29;97473.23;106014;1277;114797;-67
2022/09/28 08:28:08;;;;;;;5.60;2.70;;;;;;;12.91;74.32;97472.73;105956;1277;99292;-66
2022/09/28 08:30:36;;;;;;;6.00;2.90;;;;;;;13.53;74.20;97470.27;105961;1277;108329;-65
2022/09/28 08:33:06;;;;;;;6.30;2.70;;;;;;;14.13;74.39;97469.70;106012;1277;99346;-62
2022/09/28 08:35:36;;;;;;;5.00;2.50;;;;;;;14.77;74.24;97461.84;106001;1277;99946;-66
2022/09/28 08:38:06;;;;;;;4.10;2.40;;;;;;;15.59;73.97;97452.05;105973;1276;113315;-65
2022/09/28 08:41:12;;;;;;;4.90;2.40;;;;;;;16.45;73.91;97446.65;106310;1277;97721;-65
2022/09/28 08:43:46;;;;;;;4.90;2.50;;;;;;;17.52;73.38;97443.59;105862;1277;109206;-65
2022/09/28 08:46:19;;;;;;;4.30;2.60;;;;;;;18.32;73.30;97446.48;105871;1277;99180;-65
2022/09/28 08:49:11;;;;;;;3.70;2.20;;;;;;;18.98;72.77;97447.21;105945;1277;99252;-65
2022/09/28 08:52:07;;;;;;;4.20;1.90;;;;;;;19.59;72.47;97451.04;105875;1277;113477;-66
2022/09/28 08:55:24;;;;;;;4.00;2.50;;;;;;;20.03;72.14;97456.28;105947;1277;99263;-65
2022/09/28 08:58:18;;;;;;;3.40;2.10;;;;;;;20.38;72.15;97456.36;105968;1277;108351;-63
2022/09/28 09:00:49;;;;;;;6.20;2.40;;;;;;;20.56;71.78;97457.69;106010;1276;96745;-65
2022/09/28 09:03:34;;;;;;;3.80;2.10;;;;;;;20.82;71.86;97450.42;105934;1277;96720;-66
2022/09/28 09:06:02;;;;;;;;;;;;;;;21.01;71.51;97441.77;105839;1277;112459;-63
2022/09/28 09:08:54;;;;;;;2.50;1.70;;;;;;;21.01;71.47;97438.15;106007;1276;99332;-65
2022/09/28 09:11:43;;;;;;;4.30;1.50;;;;;;;20.95;71.27;97435.98;105931;1277;108694;-65
2022/09/28 09:14:33;;;;;;;1.80;1.50;;;;;;;20.68;70.88;97433.61;105941;1277;99320;-65
2022/09/28 09:17:23;;;;;;;3.00;1.40;;;;;;;20.34;70.70;97433.33;105999;1276;99320;-64
2022/09/28 09:20:05;;;;;;;4.70;1.50;;;;;;;20.09;70.39;97434.67;106008;1276;111533;-66
2022/09/28 09:22:47;;;;;;;;;;;;;;;19.94;70.47;97427.84;106049;1275;99252;-64
2022/09/28 09:25:48;;;;;;;4.80;1.80;;;;;;;19.72;70.39;97427.85;105970;1276;108466;-64
2022/09/28 09:28:30;;;;;;;3.10;1.50;;;;;;;19.51;70.18;97427.36;106036;1276;98385;-65
2022/09/28 09:31:42;;;;;;;2.70;1.60;;;;;;;19.77;69.94;97424.77;106046;1277;99227;-65
2022/09/28 09:34:19;;;;;;;3.10;1.70;;;;;;;19.88;69.75;97425.17;105956;1276;113403;-65
2022/09/28 09:37:04;;;;;;;2.40;1.70;;;;;;;19.96;69.39;97429.19;105911;1276;98048;-63
2022/09/28 09:39:57;;;;;;;4.30;1.70;;;;;;;20.00;69.49;97431.22;105884;1276;108254;-65
2022/09/28 09:42:28;;;;;;;1.60;1.50;;;;;;;20.11;69.27;97430.96;106027;1276;100437;-64
2022/09/28 09:45:17;;;;;;;4.00;1.40;;;;;;;20.22;69.38;97429.19;106012;1276;99226;-64
2022/09/28 09:47:52;;;;;;;3.70;1.50;;;;;;;20.30;69.02;97428.15;105934;1276;113352;-64
2022/09/28 09:50:29;;;;;;;2.90;1.60;;;;;;;20.25;68.83;97433.70;105958;1276;99332;-64
2022/09/28 09:53:23;;;;;;;2.60;1.10;;;;;;;20.08;68.65;97442.33;105981;1276;110501;-64
2022/09/28 09:55:57;;;;;;;1.90;1.50;;;;;;;19.76;68.32;97447.10;105919;1276;99264;-65
2022/09/28 09:58:33;;;;;;;1.70;1.30;;;;;;;19.57;68.15;97448.63;106021;1276;99947;-64
2022/09/28 10:01:09;;;;;;;2.70;1.40;;;;;;;19.39;67.68;97440.84;105986;1276;113516;-62
2022/09/28 10:03:43;;;;;;;2.80;1.50;;;;;;;19.27;67.79;97435.91;105998;1276;97300;-65
2022/09/28 10:06:45;;;;;;;1.80;1.50;;;;;;;19.18;67.78;97433.89;105999;1276;107589;-65
2022/09/28 10:09:23;;;;;;;3.30;1.90;;;;;;;18.97;67.29;97436.30;105606;1277;99406;-65
2022/09/28 10:11:53;;;;;;;2.50;1.30;;;;;;;18.77;67.00;97428.72;106055;1276;96717;-64
2022/09/28 10:14:23;;;;;;;3.00;1.40;;;;;;;18.67;67.07;97434.59;106054;1276;112575;-65
2022/09/28 10:16:54;;;;;;;2.40;1.30;;;;;;;18.46;66.74;97445.17;106037;1276;96627;-64
2022/09/28 10:19:33;;;;;;;3.40;1.70;;;;;;;18.19;66.49;97451.25;105983;1277;108795;-64
2022/09/28 10:22:05;;;;;;;1.60;1.10;;;;;;;18.06;66.49;97445.72;106026;1276;99237;-65
2022/09/28 10:24:40;;;;;;;3.90;1.60;;;;;;;18.06;66.33;97434.02;105954;1276;99183;-65
2022/09/28 10:27:37;;;;;;;1.80;1.30;;;;;;;18.10;66.25;97420.83;107812;1276;112208;-64
2022/09/28 10:30:08;;;;;;;3.00;1.70;;;;;;;18.02;66.08;97425.92;106105;1276;99218;-64
2022/09/28 10:32:38;;;;;;;4.50;1.70;;;;;;;17.97;65.86;97440.85;105861;1276;108388;-63
2022/09/28 10:35:21;;;;;;;3.90;1.90;;;;;;;17.89;65.67;97447.64;105847;1276;99072;-68
2022/09/28 10:37:55;;;;;;;1.80;1.60;;;;;;;17.84;65.22;97443.34;105891;1276;99287;-64
2022/09/28 10:40:42;;;;;;;2.70;1.60;;;;;;;17.78;65.07;97433.33;107801;1276;112783;-63
2022/09/28 10:43:34;;;;;;;1.60;1.10;;;;;;;17.70;65.09;97435.09;107828;1276;97320;-63
2022/09/28 10:46:06;;;;;;;4.10;1.70;;;;;;;17.56;64.85;97440.94;107814;1276;107835;-64
2022/09/28 10:48:53;;;;;;;3.50;1.40;;;;;;;17.55;64.73;97440.55;107291;1276;97068;-64
2022/09/28 10:51:44;;;;;;;2.30;1.60;;;;;;;17.51;64.54;97444.55;105779;1277;99221;-63
2022/09/28 10:54:21;;;;;;;3.30;1.90;;;;;;;17.45;64.43;97452.56;105848;1276;112726;-64
2022/09/28 10:56:51;;;;;;;2.70;1.60;;;;;;;17.37;64.12;97455.52;106007;1276;99315;-62
2022/09/28 10:59:24;;;;;;;8.60;2.20;;;;;;;17.30;64.30;97458.16;105891;1277;108373;-64
2022/09/28 11:01:58;;;;;;;2.70;1.60;;;;;;;17.22;64.06;97452.39;106005;1277;99342;-65
2022/09/28 11:04:39;;;;;;;3.40;1.50;;;;;;;17.13;64.04;97452.64;105960;1277;99258;-61
2022/09/28 11:07:19;;;;;;;2.00;1.30;;;;;;;17.01;63.78;97452.09;105952;1277;113277;-64
2022/09/28 11:09:48;;;;;;;4.00;1.30;;;;;;;16.88;63.75;97448.47;105977;1277;98947;-69
2022/09/28 11:12:23;;;;;;;1.80;1.40;;;;;;;16.79;63.57;97448.02;105960;1277;107449;-67
2022/09/28 11:15:03;;;;;;;2.20;1.30;;;;;;;16.79;63.67;97450.15;105934;1277;99823;-65
2022/09/28 11:17:39;;;;;;;2.60;1.30;;;;;;;16.85;63.57;97448.60;105884;1276;99208;-67
2022/09/28 11:20:25;;;;;;;5.90;1.50;;;;;;;16.92;63.46;97437.73;105929;1276;112863;-64
2022/09/28 11:22:58;;;;;;;3.30;1.20;;;;;;;17.06;63.65;97439.86;105871;1277;99290;-64
2022/09/28 11:25:30;;;;;;;4.00;1.10;;;;;;;17.17;63.39;97441.14;106152;1276;108405;-63
2022/09/28 11:28:03;;;;;;;0.80;0.80;;;;;;;17.26;63.07;97440.56;105987;1276;99332;-64
2022/09/28 11:30:43;;;;;;;;;;;;;;;17.36;62.96;97444.55;107839;1276;97053;-66
2022/09/28 11:33:23;;;;;;;4.40;1.10;;;;;;;17.44;62.85;97445.70;107747;1276;112711;-66
2022/09/28 11:36:17;;;;;;;2.40;1.00;;;;;;;17.55;62.79;97443.20;107749;1276;97286;-65
2022/09/28 11:39:12;;;;;;;3.30;0.90;;;;;;;17.65;62.68;97441.08;107733;1276;106786;-65
2022/09/28 11:41:47;;;;;;;;;;;;;;;17.76;62.30;97439.12;106824;1276;99313;-66
2022/09/28 11:44:27;;;;;;;5.40;0.90;;;;;;;17.82;62.27;97430.05;105646;1276;99321;-64
2022/09/28 11:47:38;;;;;;;1.00;0.80;;;;;;;17.92;62.28;97425.71;105635;1276;113621;-66
2022/09/28 11:50:31;;;;;;;1.20;0.70;;;;;;;17.98;62.10;97426.66;105751;1276;97024;-66
2022/09/28 11:53:41;;;;;;;1.40;0.80;;;;;;;18.05;62.08;97422.24;105855;1276;107825;-66
2022/09/28 11:56:39;;;;;;;1.00;0.90;;;;;;;18.08;61.89;97427.12;105773;1276;99247;-63
2022/09/28 11:59:26;;;;;;;3.90;1.40;;;;;;;18.08;61.83;97425.84;106002;1276;99175;-64
2022/09/28 12:02:20;;;;;;;1.60;0.90;;;;;;;18.09;61.72;97428.80;105868;1276;112857;-64
2022/09/28 12:05:11;;;;;;;1.30;1.10;;;;;;;18.11;61.75;97423.40;105877;1276;99244;-64